Time;durP1;ratioP1;P1;durP2;ratioP2;P2;SDS_P1;SDS_P2;PMS_P1;PMS_P2;Temp;Humidity;BMP_temperature;BMP_pressure;BME280_temperature;BME280_humidity;BME280_pressure;Samples;Min_cycle;Max_cycle;Signal;HPM_P1;HPM_P2
2023/03/07 00:01:49;;;;;;;13.37;9.17;;;3.70;68.40;;;;;;5148105;27;20194;-80
2023/03/07 00:04:16;;;;;;;13.67;9.63;;;3.70;68.40;;;;;;5153408;27;20206;-82
2023/03/07 00:06:43;;;;;;;14.50;8.80;;;3.70;69.30;;;;;;5142527;27;20206;-79
2023/03/07 00:09:11;;;;;;;12.87;9.20;;;3.70;70.10;;;;;;5153192;27;20210;-80
2023/03/07 00:11:39;;;;;;;13.83;9.20;;;3.70;71.80;;;;;;5148654;27;20556;-80
2023/03/07 00:14:07;;;;;;;16.43;10.07;;;3.70;69.60;;;;;;5148482;27;20197;-80
2023/03/07 00:16:34;;;;;;;14.83;9.60;;;3.70;68.50;;;;;;5148258;27;20254;-81
2023/03/07 00:19:01;;;;;;;14.13;9.40;;;3.70;69.30;;;;;;5145185;27;20198;-79
2023/03/07 00:21:30;;;;;;;13.30;9.13;;;3.70;70.60;;;;;;5148616;27;20192;-79
2023/03/07 00:23:57;;;;;;;16.23;10.20;;;3.70;71.60;;;;;;5155601;27;20215;-80
2023/03/07 00:26:27;;;;;;;16.50;9.93;;;3.60;71.70;;;;;;5128579;27;20199;-80
2023/03/07 00:28:55;;;;;;;15.50;10.00;;;3.50;72.60;;;;;;5158960;27;20302;-80
2023/03/07 00:31:23;;;;;;;16.37;10.13;;;3.50;72.90;;;;;;5152198;27;20198;-80
2023/03/07 00:33:51;;;;;;;17.07;10.03;;;3.50;74.70;;;;;;5151528;27;20294;-80
2023/03/07 00:36:20;;;;;;;15.17;9.73;;;3.50;75.10;;;;;;5146271;27;20654;-83
2023/03/07 00:38:48;;;;;;;15.60;9.87;;;3.50;75.30;;;;;;5153142;27;20206;-79
2023/03/07 00:41:16;;;;;;;16.67;9.80;;;3.40;77.50;;;;;;5151841;27;20213;-82
2023/03/07 00:43:44;;;;;;;14.37;10.53;;;3.40;78.30;;;;;;5149063;27;20195;-79
2023/03/07 00:46:13;;;;;;;15.70;10.20;;;3.40;78.00;;;;;;5156267;27;20560;-80
2023/03/07 00:48:40;;;;;;;14.77;9.90;;;3.40;78.30;;;;;;5136485;27;20674;-80
2023/03/07 00:51:09;;;;;;;15.43;9.83;;;3.40;78.20;;;;;;5149386;27;20210;-80
2023/03/07 00:53:37;;;;;;;19.33;9.90;;;3.40;77.90;;;;;;5153354;27;20624;-79
2023/03/07 00:56:06;;;;;;;17.70;10.00;;;3.40;77.40;;;;;;5138869;27;20609;-83
2023/03/07 00:58:35;;;;;;;15.70;10.20;;;3.40;77.60;;;;;;5153150;27;20206;-82
2023/03/07 01:01:02;;;;;;;14.97;9.50;;;3.40;77.00;;;;;;5148637;27;20220;-80
2023/03/07 01:03:31;;;;;;;15.30;10.37;;;3.40;77.80;;;;;;5153886;27;20199;-80
2023/03/07 01:05:58;;;;;;;14.90;9.97;;;3.40;77.90;;;;;;5150922;27;20233;-81
2023/03/07 01:08:25;;;;;;;17.17;10.00;;;3.30;77.50;;;;;;5144823;27;20194;-79
2023/03/07 01:10:58;;;;;;;16.47;10.20;;;3.30;77.80;;;;;;5130867;27;21760;-81
2023/03/07 01:13:25;;;;;;;13.60;9.67;;;3.30;77.90;;;;;;5142292;27;20558;-79
2023/03/07 01:15:52;;;;;;;15.20;9.80;;;3.20;78.50;;;;;;5144838;27;20224;-83
2023/03/07 01:18:19;;;;;;;14.63;9.40;;;3.20;79.00;;;;;;5147191;27;20218;-79
2023/03/07 01:20:47;;;;;;;16.37;9.77;;;3.30;77.70;;;;;;5152524;27;20198;-80
2023/03/07 01:23:14;;;;;;;14.20;9.63;;;3.30;77.00;;;;;;5152363;27;20218;-80
2023/03/07 01:25:42;;;;;;;13.90;8.87;;;3.20;76.30;;;;;;5154188;27;20225;-80
2023/03/07 01:28:13;;;;;;;12.77;8.97;;;3.30;75.70;;;;;;5154654;27;20209;-80
2023/03/07 01:30:40;;;;;;;13.97;8.87;;;3.30;72.30;;;;;;5149801;27;20217;-80
2023/03/07 01:33:06;;;;;;;13.23;8.67;;;3.30;73.50;;;;;;5154018;27;20216;-79
2023/03/07 01:35:37;;;;;;;14.20;8.97;;;3.30;73.70;;;;;;5146961;27;20202;-79
2023/03/07 01:38:06;;;;;;;14.00;8.97;;;3.30;71.20;;;;;;5150444;27;20207;-80
2023/03/07 01:40:33;;;;;;;15.63;10.17;;;3.30;69.20;;;;;;5151823;27;20190;-80
2023/03/07 01:43:25;;;;;;;17.07;11.10;;;3.40;68.10;;;;;;5154426;27;20209;-80
2023/03/07 01:46:51;;;;;;;14.33;10.20;;;3.50;68.10;;;;;;5143064;27;20226;-80
2023/03/07 01:49:24;;;;;;;41.60;25.20;;;3.60;68.20;;;;;;5152139;27;20694;-80
2023/03/07 01:51:56;;;;;;;13.63;8.60;;;3.60;74.70;;;;;;5155298;27;20194;-80
2023/03/07 01:54:26;;;;;;;24.67;16.40;;;3.60;65.80;;;;;;5146522;27;20201;-79
2023/03/07 01:56:53;;;;;;;12.73;8.53;;;3.70;68.40;;;;;;5151167;27;20629;-79
2023/03/07 01:59:27;;;;;;;11.73;8.83;;;3.60;64.70;;;;;;5153784;27;20202;-79
2023/03/07 02:01:54;;;;;;;39.93;24.07;;;3.60;64.40;;;;;;5152281;27;20733;-80
2023/03/07 02:04:27;;;;;;;25.67;17.23;;;3.70;68.50;;;;;;5153127;27;20199;-79
2023/03/07 02:06:53;;;;;;;22.90;15.43;;;3.60;68.30;;;;;;5160129;27;20203;-80
2023/03/07 02:09:23;;;;;;;21.90;14.63;;;3.60;68.30;;;;;;5154641;27;20558;-80
2023/03/07 02:11:55;;;;;;;22.63;13.97;;;3.60;68.30;;;;;;5150627;27;20195;-79
2023/03/07 02:14:22;;;;;;;13.77;9.07;;;3.70;68.40;;;;;;5150777;27;20246;-79
2023/03/07 02:16:49;;;;;;;15.73;10.50;;;3.70;63.00;;;;;;5149130;27;20198;-81
2023/03/07 02:19:43;;;;;;;12.40;9.03;;;3.70;66.90;;;;;;5149562;27;20571;-80
2023/03/07 02:22:13;;;;;;;15.27;9.10;;;3.80;61.80;;;;;;5133571;27;20214;-80
2023/03/07 02:24:44;;;;;;;13.77;9.30;;;3.70;60.90;;;;;;5148985;27;20197;-79
2023/03/07 02:27:13;;;;;;;18.63;11.70;;;3.70;61.80;;;;;;5152452;27;20669;-80
2023/03/07 02:29:40;;;;;;;18.60;12.13;;;3.70;63.90;;;;;;5147463;27;20198;-79
2023/03/07 02:32:08;;;;;;;11.17;7.90;;;3.70;64.60;;;;;;5152353;27;20199;-81
2023/03/07 02:34:35;;;;;;;13.80;8.37;;;3.60;61.80;;;;;;5160579;27;20194;-80
2023/03/07 02:37:04;;;;;;;18.17;11.97;;;3.60;62.10;;;;;;5154096;27;20716;-80
2023/03/07 02:39:32;;;;;;;17.33;11.37;;;3.50;66.90;;;;;;5148896;27;20263;-82
2023/03/07 02:42:02;;;;;;;12.13;7.97;;;3.50;68.10;;;;;;5147012;27;20214;-80
2023/03/07 02:44:30;;;;;;;17.53;11.93;;;3.50;65.60;;;;;;5152189;27;20191;-83
2023/03/07 02:46:57;;;;;;;16.87;8.27;;;3.60;65.70;;;;;;5146646;27;20194;-79
2023/03/07 02:49:25;;;;;;;10.77;8.17;;;3.60;61.20;;;;;;5149318;27;20281;-84
2023/03/07 02:51:56;;;;;;;11.87;8.40;;;3.60;62.90;;;;;;5150882;27;20194;-79
2023/03/07 02:54:23;;;;;;;14.13;9.30;;;3.60;60.50;;;;;;5144231;27;20286;-79
2023/03/07 02:56:50;;;;;;;11.43;7.70;;;3.60;61.80;;;;;;5146189;27;20210;-79
2023/03/07 02:59:17;;;;;;;10.90;7.53;;;3.60;61.60;;;;;;5152381;27;20195;-81
2023/03/07 03:01:46;;;;;;;11.83;7.77;;;3.70;63.30;;;;;;5149398;27;20214;-80
2023/03/07 03:04:12;;;;;;;14.07;8.53;;;3.60;61.60;;;;;;5155515;27;20285;-81
2023/03/07 03:06:39;;;;;;;11.13;7.70;;;3.50;62.30;;;;;;5152023;27;20206;-79
2023/03/07 03:09:06;;;;;;;12.23;8.20;;;3.60;61.80;;;;;;5148320;27;20203;-79
2023/03/07 03:11:34;;;;;;;15.43;9.67;;;3.70;62.40;;;;;;5151941;27;20195;-80
2023/03/07 03:14:01;;;;;;;15.60;10.63;;;3.70;60.90;;;;;;5156509;27;20198;-79
2023/03/07 03:16:28;;;;;;;12.27;7.77;;;3.70;60.30;;;;;;5123190;27;20631;-80
2023/03/07 03:18:56;;;;;;;14.07;9.53;;;3.70;59.30;;;;;;5147720;27;20598;-81
2023/03/07 03:21:23;;;;;;;14.30;8.43;;;3.70;59.60;;;;;;5138170;27;20203;-79
2023/03/07 03:23:50;;;;;;;11.07;8.03;;;3.60;59.00;;;;;;5146340;27;20202;-80
2023/03/07 03:26:17;;;;;;;14.63;8.43;;;3.60;60.40;;;;;;5144808;27;20205;-80
2023/03/07 03:28:44;;;;;;;13.80;7.90;;;3.50;59.30;;;;;;5147942;27;20251;-80
2023/03/07 03:31:14;;;;;;;11.63;7.43;;;3.50;60.80;;;;;;5143053;27;20213;-79
2023/03/07 03:33:42;;;;;;;16.67;11.37;;;3.50;59.80;;;;;;5147463;27;20199;-79
2023/03/07 03:36:14;;;;;;;11.20;7.50;;;3.60;63.60;;;;;;5151681;27;20251;-79
2023/03/07 03:38:40;;;;;;;11.63;8.30;;;3.70;58.70;;;;;;5144269;27;20230;-79
2023/03/07 03:41:10;;;;;;;10.87;7.73;;;3.70;59.10;;;;;;5142874;27;20468;-79
2023/03/07 03:43:37;;;;;;;11.40;7.73;;;3.70;57.90;;;;;;5151368;27;20198;-80
2023/03/07 03:46:05;;;;;;;11.80;7.93;;;3.70;59.20;;;;;;5151947;27;20199;-80
2023/03/07 03:48:32;;;;;;;11.40;7.43;;;3.60;59.00;;;;;;5147957;27;20198;-79
2023/03/07 03:51:03;;;;;;;12.07;7.93;;;3.60;59.10;;;;;;5143837;27;20207;-79
2023/03/07 03:53:32;;;;;;;10.93;7.90;;;3.70;62.90;;;;;;5146057;27;20252;-79
2023/03/07 03:56:04;;;;;;;9.97;7.50;;;3.60;60.40;;;;;;5145320;27;20202;-81
2023/03/07 03:58:32;;;;;;;15.93;10.43;;;3.60;62.10;;;;;;5151410;27;20632;-79
2023/03/07 04:01:01;;;;;;;10.87;7.87;;;3.60;61.00;;;;;;5150974;27;20210;-81
2023/03/07 04:03:28;;;;;;;12.27;7.10;;;3.60;61.80;;;;;;5148617;27;20663;-78
2023/03/07 04:05:59;;;;;;;11.70;7.43;;;3.60;59.90;;;;;;5148548;27;20242;-80
2023/03/07 04:08:26;;;;;;;12.63;8.63;;;3.70;59.50;;;;;;5146628;27;20202;-79
2023/03/07 04:10:54;;;;;;;15.20;8.17;;;3.60;59.60;;;;;;5144590;27;20213;-80
2023/03/07 04:13:21;;;;;;;11.23;7.23;;;3.60;60.90;;;;;;5145821;27;20198;-79
2023/03/07 04:15:48;;;;;;;11.30;7.27;;;3.50;61.80;;;;;;5151503;27;20194;-79
2023/03/07 04:18:15;;;;;;;11.17;7.60;;;3.60;58.30;;;;;;5146558;27;20206;-78
2023/03/07 04:20:44;;;;;;;11.33;7.50;;;3.60;58.50;;;;;;5141098;27;20199;-79
2023/03/07 04:23:11;;;;;;;9.23;7.10;;;3.70;57.60;;;;;;5143223;27;20238;-79
2023/03/07 04:25:38;;;;;;;11.87;7.13;;;3.70;59.30;;;;;;5150663;27;20653;-81
2023/03/07 04:28:06;;;;;;;11.87;7.30;;;3.70;56.40;;;;;;5150115;27;20198;-79
2023/03/07 04:30:33;;;;;;;12.63;8.10;;;3.60;58.40;;;;;;5157250;27;20657;-79
2023/03/07 04:33:00;;;;;;;16.77;9.57;;;3.60;59.40;;;;;;5144387;27;20202;-82
2023/03/07 04:35:27;;;;;;;12.93;8.17;;;3.70;59.10;;;;;;5147526;27;20199;-79
2023/03/07 04:37:53;;;;;;;15.40;7.63;;;3.60;56.80;;;;;;5146128;27;20233;-79
2023/03/07 04:40:20;;;;;;;12.13;7.77;;;3.60;57.90;;;;;;5152872;27;20194;-78
2023/03/07 04:42:47;;;;;;;12.67;7.93;;;3.60;57.50;;;;;;5153966;27;20206;-81
2023/03/07 04:45:15;;;;;;;12.47;8.37;;;3.70;55.00;;;;;;5150016;27;20194;-79
2023/03/07 04:47:42;;;;;;;13.93;7.57;;;3.60;55.80;;;;;;5142593;27;20190;-79
2023/03/07 04:50:10;;;;;;;11.43;7.73;;;3.60;56.10;;;;;;5143971;27;20241;-79
2023/03/07 04:52:37;;;;;;;13.13;7.60;;;3.60;56.80;;;;;;5151476;27;20555;-78
2023/03/07 04:55:06;;;;;;;13.20;8.33;;;3.50;56.00;;;;;;5142781;27;20205;-78
2023/03/07 04:57:33;;;;;;;12.80;8.17;;;3.50;56.70;;;;;;5149914;27;20199;-79
2023/03/07 04:59:59;;;;;;;11.87;8.50;;;3.50;57.80;;;;;;5149229;27;20203;-79
2023/03/07 05:02:28;;;;;;;13.90;8.50;;;3.50;57.10;;;;;;5149022;27;20206;-79
2023/03/07 05:04:54;;;;;;;13.73;8.20;;;3.40;60.20;;;;;;5143752;27;20284;-78
2023/03/07 05:07:21;;;;;;;12.30;8.30;;;3.30;59.20;;;;;;5150959;27;20209;-79
2023/03/07 05:09:48;;;;;;;13.63;8.30;;;3.30;58.20;;;;;;5147260;27;20203;-79
2023/03/07 05:12:14;;;;;;;12.90;8.23;;;3.20;60.60;;;;;;5151731;27;20202;-80
2023/03/07 05:14:41;;;;;;;13.83;8.20;;;3.20;60.00;;;;;;5156083;27;20203;-79
2023/03/07 05:17:09;;;;;;;12.40;8.30;;;3.20;61.30;;;;;;5151875;27;20191;-79
2023/03/07 05:19:37;;;;;;;15.73;9.37;;;3.20;62.90;;;;;;5154679;27;20249;-79
2023/03/07 05:22:04;;;;;;;13.30;8.63;;;3.10;67.80;;;;;;5151685;27;20226;-79
2023/03/07 05:24:30;;;;;;;14.60;8.40;;;3.10;66.40;;;;;;5152885;27;20233;-78
2023/03/07 05:26:57;;;;;;;13.53;8.53;;;3.10;67.80;;;;;;5149753;27;20194;-79
2023/03/07 05:29:24;;;;;;;13.53;8.97;;;3.10;67.80;;;;;;5115029;27;20194;-78
2023/03/07 05:31:51;;;;;;;14.47;8.63;;;3.10;67.80;;;;;;5150767;27;20229;-80
2023/03/07 05:34:18;;;;;;;15.83;9.60;;;3.00;67.60;;;;;;5151711;27;20210;-79
2023/03/07 05:36:47;;;;;;;14.73;8.80;;;3.00;67.60;;;;;;5153513;27;20194;-80
2023/03/07 05:39:15;;;;;;;15.20;9.40;;;2.90;67.60;;;;;;5132797;27;20218;-80
2023/03/07 05:41:42;;;;;;;13.67;8.60;;;2.90;70.80;;;;;;5153040;27;20237;-80
2023/03/07 05:44:09;;;;;;;15.10;9.57;;;2.90;68.90;;;;;;5131003;27;20207;-80
2023/03/07 05:46:35;;;;;;;15.53;9.50;;;2.90;75.00;;;;;;5150675;27;20202;-78
2023/03/07 05:49:03;;;;;;;15.10;9.73;;;2.90;72.00;;;;;;5148623;27;20202;-77
2023/03/07 05:51:30;;;;;;;12.90;9.17;;;2.70;73.20;;;;;;5149956;27;20213;-79
2023/03/07 05:53:58;;;;;;;15.27;9.10;;;2.70;74.30;;;;;;5152100;27;20207;-78
2023/03/07 05:56:25;;;;;;;15.03;9.87;;;2.80;74.60;;;;;;5150725;27;20563;-80
2023/03/07 05:58:52;;;;;;;14.17;9.53;;;2.80;74.20;;;;;;5145728;27;20226;-79
2023/03/07 06:01:19;;;;;;;13.30;8.90;;;2.90;74.90;;;;;;5153328;27;20190;-79
2023/03/07 06:03:46;;;;;;;18.53;10.40;;;2.90;74.90;;;;;;5150963;27;20190;-81
2023/03/07 06:06:13;;;;;;;14.33;10.00;;;2.80;78.00;;;;;;5148620;27;20198;-86
2023/03/07 06:08:40;;;;;;;16.63;10.10;;;2.80;74.70;;;;;;5149000;27;20207;-79
2023/03/07 06:11:10;;;;;;;14.53;9.63;;;2.80;76.60;;;;;;5150930;27;20556;-82
2023/03/07 06:13:37;;;;;;;17.10;9.60;;;2.80;75.50;;;;;;5142191;27;20571;-79
2023/03/07 06:16:03;;;;;;;15.47;10.13;;;2.80;77.40;;;;;;5134498;27;20206;-79
2023/03/07 06:18:30;;;;;;;14.10;9.07;;;2.80;78.80;;;;;;5148985;27;20238;-79
2023/03/07 06:20:59;;;;;;;14.70;10.37;;;2.90;76.80;;;;;;5151907;27;20284;-80
2023/03/07 06:23:26;;;;;;;16.20;10.37;;;2.90;77.20;;;;;;5156642;27;20693;-81
2023/03/07 06:25:53;;;;;;;16.77;9.67;;;3.00;75.10;;;;;;5151260;27;20199;-78
2023/03/07 06:28:21;;;;;;;16.33;10.40;;;2.90;75.90;;;;;;5147017;27;20199;-79
2023/03/07 06:30:48;;;;;;;17.80;10.20;;;3.00;79.30;;;;;;5153326;27;20194;-79
2023/03/07 06:33:15;;;;;;;20.10;10.60;;;3.10;75.60;;;;;;5150455;27;20650;-79
2023/03/07 06:35:43;;;;;;;15.03;9.97;;;3.00;76.70;;;;;;5149670;27;20198;-78
2023/03/07 06:38:12;;;;;;;21.27;10.63;;;3.20;78.40;;;;;;5152089;27;20194;-80
2023/03/07 06:40:39;;;;;;;14.23;9.57;;;3.10;76.30;;;;;;5145140;27;20293;-80
2023/03/07 06:43:05;;;;;;;15.70;10.00;;;3.10;75.80;;;;;;5149137;27;20199;-81
2023/03/07 06:45:34;;;;;;;17.13;10.43;;;3.20;75.40;;;;;;5153646;27;20281;-80
2023/03/07 06:48:01;;;;;;;14.23;9.93;;;3.40;75.80;;;;;;5139109;27;20203;-80
2023/03/07 06:50:28;;;;;;;14.40;9.60;;;3.50;74.40;;;;;;5152858;27;20223;-80
2023/03/07 06:52:54;;;;;;;15.33;10.10;;;3.60;70.60;;;;;;5150859;27;20207;-80
2023/03/07 06:55:24;;;;;;;14.17;9.67;;;3.80;71.90;;;;;;5147216;27;20574;-80
2023/03/07 06:57:51;;;;;;;17.23;9.83;;;4.00;68.70;;;;;;5146452;27;22488;-80
2023/03/07 07:00:19;;;;;;;17.47;11.13;;;4.10;66.60;;;;;;5144913;27;20236;-80
2023/03/07 07:02:47;;;;;;;15.50;10.30;;;4.10;68.80;;;;;;5150508;27;20575;-80
2023/03/07 07:05:14;;;;;;;15.27;10.13;;;4.20;66.90;;;;;;5152252;27;20207;-80
2023/03/07 07:07:41;;;;;;;18.87;11.07;;;4.20;68.70;;;;;;5146100;27;20903;-81
2023/03/07 07:10:09;;;;;;;14.57;9.30;;;4.20;68.90;;;;;;5147239;27;20202;-82
2023/03/07 07:12:36;;;;;;;15.77;10.40;;;4.30;63.80;;;;;;5145893;27;20199;-81
2023/03/07 07:15:04;;;;;;;17.43;10.13;;;4.20;64.50;;;;;;5151096;27;20605;-88
2023/03/07 07:17:31;;;;;;;15.60;10.00;;;4.20;63.50;;;;;;5151242;27;20597;-84
2023/03/07 07:19:59;;;;;;;15.63;9.67;;;4.20;65.20;;;;;;5147708;27;20222;-82
2023/03/07 07:22:28;;;;;;;16.07;9.90;;;4.30;62.10;;;;;;5144082;27;20222;-80
2023/03/07 07:24:54;;;;;;;16.20;9.90;;;4.40;63.60;;;;;;5147626;27;20202;-84
2023/03/07 07:27:21;;;;;;;14.93;9.97;;;4.40;59.20;;;;;;5145087;27;20191;-83
2023/03/07 07:29:48;;;;;;;17.50;10.43;;;4.40;60.20;;;;;;5149148;27;20241;-86
2023/03/07 07:32:15;;;;;;;16.90;9.53;;;4.50;60.60;;;;;;5151408;27;20198;-83
2023/03/07 07:34:42;;;;;;;15.53;9.37;;;4.40;56.60;;;;;;5147494;27;20195;-83
2023/03/07 07:37:10;;;;;;;14.47;9.93;;;4.40;57.30;;;;;;5148621;27;20199;-83
2023/03/07 07:39:39;;;;;;;15.37;9.57;;;4.50;58.00;;;;;;5143404;27;20233;-82
2023/03/07 07:42:06;;;;;;;14.27;9.13;;;4.60;55.70;;;;;;5151186;27;20766;-82
2023/03/07 07:44:33;;;;;;;13.60;9.37;;;4.60;54.80;;;;;;5148725;27;20199;-80
2023/03/07 07:47:01;;;;;;;15.70;9.47;;;4.80;54.80;;;;;;5149740;27;20202;-82
2023/03/07 07:49:28;;;;;;;14.83;9.40;;;4.90;49.50;;;;;;5151245;27;20202;-80
2023/03/07 07:51:55;;;;;;;14.43;9.37;;;4.90;51.50;;;;;;5153439;27;20206;-81
2023/03/07 07:54:23;;;;;;;15.23;9.10;;;5.00;49.50;;;;;;5147123;27;20205;-81
2023/03/07 07:56:50;;;;;;;15.93;8.67;;;5.20;47.90;;;;;;5149221;27;20213;-83
2023/03/07 07:59:17;;;;;;;15.47;9.03;;;5.30;44.60;;;;;;5149170;27;20233;-81
2023/03/07 08:01:44;;;;;;;11.97;8.50;;;5.50;44.70;;;;;;5150148;27;20195;-82
2023/03/07 08:04:11;;;;;;;13.83;9.13;;;5.70;40.90;;;;;;5158560;27;20197;-82
2023/03/07 08:06:38;;;;;;;15.50;8.30;;;5.70;44.80;;;;;;5158622;27;20199;-82
2023/03/07 08:09:05;;;;;;;14.20;9.10;;;5.80;41.30;;;;;;5152183;27;20202;-82
2023/03/07 08:11:34;;;;;;;14.00;8.52;;;5.90;39.80;;;;;;5153171;27;20203;-83
2023/03/07 08:14:02;;;;;;;14.25;8.25;;;6.00;36.80;;;;;;5145739;27;20198;-83
2023/03/07 08:16:29;;;;;;;13.70;8.60;;;6.10;36.60;;;;;;5151269;27;20666;-84
2023/03/07 08:18:57;;;;;;;12.85;7.95;;;6.10;34.20;;;;;;5151529;27;20689;-82
2023/03/07 08:21:25;;;;;;;12.37;8.30;;;6.20;34.70;;;;;;5147506;27;20203;-82
2023/03/07 08:23:53;;;;;;;10.90;7.17;;;6.20;31.90;;;;;;5146768;27;20205;-82
2023/03/07 08:26:20;;;;;;;13.90;8.18;;;6.20;32.20;;;;;;5140886;27;20191;-82
2023/03/07 08:28:49;;;;;;;11.88;8.07;;;6.20;33.40;;;;;;5152713;27;20202;-82
2023/03/07 08:31:17;;;;;;;10.50;7.18;;;6.20;31.80;;;;;;5153596;27;20202;-82
2023/03/07 08:33:46;;;;;;;11.65;7.47;;;6.30;30.80;;;;;;5152946;27;20202;-82
2023/03/07 08:36:13;;;;;;;10.57;7.00;;;6.40;29.80;;;;;;5149911;27;20194;-82
2023/03/07 08:38:40;;;;;;;11.93;7.63;;;6.40;28.90;;;;;;5152185;27;20678;-81
2023/03/07 08:41:08;;;;;;;11.50;6.97;;;6.40;29.30;;;;;;5150021;27;20574;-83
2023/03/07 08:43:38;;;;;;;10.65;6.97;;;6.50;29.40;;;;;;5155786;27;20547;-81
2023/03/07 08:46:06;;;;;;;14.52;7.35;;;6.60;28.70;;;;;;5150411;27;20285;-83
2023/03/07 08:48:33;;;;;;;10.98;7.10;;;6.70;28.20;;;;;;5152702;27;20199;-83
2023/03/07 08:51:05;;;;;;;12.13;7.28;;;6.80;29.00;;;;;;5147087;27;20203;-84
2023/03/07 08:53:32;;;;;;;11.68;7.18;;;6.90;29.10;;;;;;5153307;27;20206;-81
2023/03/07 08:55:59;;;;;;;12.80;6.60;;;6.90;26.70;;;;;;5154409;27;20209;-81
2023/03/07 08:58:25;;;;;;;15.60;7.25;;;6.80;27.60;;;;;;5154984;27;20203;-83
2023/03/07 09:00:52;;;;;;;12.15;6.93;;;6.90;26.30;;;;;;5155866;27;20210;-84
2023/03/07 09:03:20;;;;;;;13.80;6.85;;;7.10;24.80;;;;;;5156906;27;20207;-83
2023/03/07 09:05:47;;;;;;;11.18;6.88;;;7.40;23.20;;;;;;5156848;27;20194;-84
2023/03/07 09:08:14;;;;;;;11.77;7.20;;;7.70;23.40;;;;;;5154918;27;20213;-84
2023/03/07 09:10:41;;;;;;;9.98;6.70;;;7.80;23.40;;;;;;5153683;27;20202;-86
2023/03/07 09:13:08;;;;;;;10.70;6.97;;;8.30;23.80;;;;;;5158408;27;20190;-84
2023/03/07 09:15:37;;;;;;;11.77;6.70;;;8.70;24.10;;;;;;5142638;27;20206;-84
2023/03/07 09:18:04;;;;;;;9.57;7.15;;;9.30;21.10;;;;;;5125043;27;20207;-84
2023/03/07 09:20:32;;;;;;;11.50;7.40;;;9.40;19.60;;;;;;5156386;27;20234;-85
2023/03/07 09:22:59;;;;;;;8.90;6.65;;;9.40;19.00;;;;;;5153296;27;20229;-86
2023/03/07 09:25:26;;;;;;;10.57;7.43;;;9.10;19.50;;;;;;5155467;27;20194;-85
2023/03/07 09:27:54;;;;;;;12.60;7.25;;;9.40;20.10;;;;;;5153133;27;20309;-84
2023/03/07 09:30:21;;;;;;;10.63;8.00;;;10.10;17.60;;;;;;5155975;27;20202;-84
2023/03/07 09:32:48;;;;;;;14.77;7.60;;;10.60;16.80;;;;;;5152273;27;20198;-84
2023/03/07 09:35:15;;;;;;;11.65;7.47;;;11.00;15.00;;;;;;5150902;27;20199;-85
2023/03/07 09:37:43;;;;;;;12.68;7.55;;;11.60;14.90;;;;;;5147269;27;20201;-84
2023/03/07 09:40:17;;;;;;;10.80;7.97;;;11.80;14.10;;;;;;5153294;27;20214;-85
2023/03/07 09:42:53;;;;;;;9.90;7.50;;;11.60;14.40;;;;;;5144780;27;20208;-84
2023/03/07 09:45:31;;;;;;;14.73;7.60;;;10.90;13.90;;;;;;5155272;27;20208;-85
2023/03/07 09:48:30;;;;;;;10.60;7.68;;;11.20;14.60;;;;;;5153524;27;20195;-85
2023/03/07 09:51:00;;;;;;;10.60;7.53;;;11.80;13.40;;;;;;5124726;27;20209;-84
2023/03/07 09:53:35;;;;;;;10.25;7.80;;;11.80;13.90;;;;;;5155230;27;20210;-85
2023/03/07 09:56:07;;;;;;;12.85;8.63;;;12.20;12.90;;;;;;5155120;27;20243;-84
2023/03/07 09:58:38;;;;;;;12.05;9.05;;;12.40;12.20;;;;;;5148602;27;20194;-86
2023/03/07 10:01:09;;;;;;;12.63;8.07;;;12.20;12.70;;;;;;5154340;27;20214;-83
2023/03/07 10:03:45;;;;;;;13.10;7.75;;;12.50;12.70;;;;;;5133375;27;20339;-82
2023/03/07 10:06:16;;;;;;;11.27;8.18;;;12.30;12.10;;;;;;5153601;27;20194;-84
2023/03/07 10:08:45;;;;;;;10.98;8.35;;;11.90;13.30;;;;;;5157268;27;20201;-84
2023/03/07 10:11:24;;;;;;;16.33;8.65;;;11.90;13.10;;;;;;5155107;27;20207;-85
2023/03/07 10:14:10;;;;;;;13.45;8.30;;;12.20;13.10;;;;;;5146560;27;20545;-84
2023/03/07 10:16:48;;;;;;;12.82;8.48;;;12.20;12.80;;;;;;5152685;27;20725;-86
2023/03/07 10:19:25;;;;;;;12.15;8.32;;;11.80;13.40;;;;;;5152289;27;20198;-85
2023/03/07 10:21:59;;;;;;;14.68;8.82;;;11.50;13.20;;;;;;5134680;27;20591;-85
2023/03/07 10:24:38;;;;;;;13.35;8.10;;;11.60;14.50;;;;;;5150077;27;20209;-87
2023/03/07 10:27:07;;;;;;;11.07;8.60;;;11.80;13.40;;;;;;5154242;27;20562;-85
2023/03/07 10:29:42;;;;;;;10.52;8.27;;;12.20;13.20;;;;;;5152721;27;20198;-84
2023/03/07 10:32:22;;;;;;;12.65;8.88;;;12.00;13.10;;;;;;5155358;27;20198;-84
2023/03/07 10:34:56;;;;;;;11.48;8.40;;;11.80;13.30;;;;;;5153689;27;20194;-84
2023/03/07 10:37:31;;;;;;;13.65;8.25;;;11.80;11.90;;;;;;5153144;27;20186;-85
2023/03/07 10:40:00;;;;;;;12.05;7.95;;;11.70;13.20;;;;;;5148880;27;20206;-85
2023/03/07 10:42:33;;;;;;;14.82;8.18;;;11.90;12.70;;;;;;5154413;27;20258;-84
2023/03/07 10:45:02;;;;;;;13.07;8.77;;;12.50;12.40;;;;;;5148784;27;20199;-84
2023/03/07 10:47:29;;;;;;;11.20;8.02;;;12.20;11.30;;;;;;5152093;27;20198;-85
2023/03/07 10:50:02;;;;;;;12.43;7.50;;;11.80;12.00;;;;;;5152082;27;20653;-85
2023/03/07 10:52:34;;;;;;;12.13;8.75;;;11.80;12.80;;;;;;5152367;27;20194;-84
2023/03/07 10:55:35;;;;;;;13.13;8.55;;;11.90;13.80;;;;;;5150290;27;20198;-84
2023/03/07 10:58:18;;;;;;;12.30;8.20;;;12.30;14.40;;;;;;5149701;27;20201;-82
2023/03/07 11:00:58;;;;;;;14.02;8.45;;;12.30;14.10;;;;;;5155000;27;20250;-83
2023/03/07 11:03:39;;;;;;;11.75;8.90;;;12.60;13.20;;;;;;5148161;27;20218;-85
2023/03/07 11:06:43;;;;;;;12.15;8.73;;;12.60;11.80;;;;;;5148104;27;20203;-84
2023/03/07 11:09:16;;;;;;;12.45;8.75;;;12.70;11.90;;;;;;5152376;27;20247;-85
2023/03/07 11:11:50;;;;;;;12.85;9.18;;;12.20;12.80;;;;;;5132326;27;20673;-84
2023/03/07 11:14:19;;;;;;;12.35;9.23;;;12.00;13.50;;;;;;5144118;27;20194;-84
2023/03/07 11:16:50;;;;;;;11.93;8.68;;;11.60;13.20;;;;;;5140314;27;20654;-84
2023/03/07 11:19:50;;;;;;;14.57;8.95;;;11.00;13.50;;;;;;5145170;27;20202;-85
2023/03/07 11:22:27;;;;;;;12.48;8.50;;;10.40;15.50;;;;;;5153668;27;20215;-84
2023/03/07 11:25:03;;;;;;;15.18;8.52;;;9.90;17.50;;;;;;5153914;27;20202;-83
2023/03/07 11:27:36;;;;;;;13.85;8.70;;;9.40;17.70;;;;;;5153143;27;20226;-85
2023/03/07 11:30:20;;;;;;;15.25;8.60;;;9.50;19.40;;;;;;5145893;27;20202;-83
2023/03/07 11:33:07;;;;;;;11.32;8.07;;;9.50;18.20;;;;;;5150816;27;20194;-83
2023/03/07 11:35:50;;;;;;;14.38;8.77;;;9.70;18.90;;;;;;5148424;27;20954;-83
2023/03/07 11:38:27;;;;;;;12.85;8.30;;;9.70;19.80;;;;;;5144954;27;20190;-83
2023/03/07 11:41:00;;;;;;;11.43;8.48;;;9.70;18.80;;;;;;5145921;27;20202;-80
2023/03/07 11:43:41;;;;;;;14.43;8.07;;;9.80;20.00;;;;;;5143278;27;20643;-79
2023/03/07 11:46:16;;;;;;;10.45;7.88;;;9.90;19.50;;;;;;5138680;27;20678;-80
2023/03/07 11:48:52;;;;;;;14.32;8.60;;;10.00;17.10;;;;;;5146164;27;20198;-81
2023/03/07 11:51:31;;;;;;;11.05;8.30;;;9.80;17.30;;;;;;5148700;27;20205;-81
2023/03/07 11:54:07;;;;;;;12.68;8.45;;;9.70;19.00;;;;;;5147733;27;20194;-81
2023/03/07 11:56:40;;;;;;;12.90;8.40;;;9.80;19.10;;;;;;5145456;27;20225;-82
2023/03/07 11:59:27;;;;;;;13.80;9.02;;;9.90;18.50;;;;;;5149642;27;20841;-82
2023/03/07 12:01:57;;;;;;;13.88;8.60;;;9.80;18.20;;;;;;5145137;27;20600;-82
2023/03/07 12:04:51;;;;;;;12.88;8.00;;;9.80;19.30;;;;;;5148666;27;20194;-82
2023/03/07 12:07:42;;;;;;;11.25;8.40;;;9.60;18.80;;;;;;5149163;27;20706;-82
2023/03/07 12:10:19;;;;;;;12.10;8.43;;;9.60;19.20;;;;;;5139569;27;20198;-81
2023/03/07 12:13:03;;;;;;;13.32;8.40;;;9.70;18.70;;;;;;5137764;27;20210;-82
2023/03/07 12:15:40;;;;;;;13.13;8.65;;;9.70;19.80;;;;;;5145302;27;20251;-80
2023/03/07 12:18:22;;;;;;;12.98;8.60;;;9.90;19.50;;;;;;5154692;27;20197;-82
2023/03/07 12:21:03;;;;;;;14.20;9.30;;;9.60;18.50;;;;;;5154909;27;20640;-82
2023/03/07 12:23:36;;;;;;;13.80;8.38;;;9.40;19.90;;;;;;5138275;27;20206;-82
2023/03/07 12:26:11;;;;;;;12.55;8.48;;;9.30;19.50;;;;;;5157346;27;20243;-82
2023/03/07 12:28:45;;;;;;;12.73;8.80;;;9.30;18.60;;;;;;5148596;27;20209;-82
2023/03/07 12:31:17;;;;;;;14.63;8.70;;;9.50;20.00;;;;;;5135195;27;20218;-83
2023/03/07 12:34:05;;;;;;;16.17;9.02;;;9.50;19.80;;;;;;5148513;27;20203;-82
2023/03/07 12:36:38;;;;;;;12.38;8.32;;;9.20;19.50;;;;;;5153840;27;20589;-82
2023/03/07 12:39:15;;;;;;;13.10;8.68;;;9.10;19.60;;;;;;5159328;27;20195;-82
2023/03/07 12:41:52;;;;;;;12.93;8.77;;;9.30;21.10;;;;;;5155624;27;20226;-82
2023/03/07 12:44:30;;;;;;;11.88;8.13;;;9.30;19.80;;;;;;5152204;27;20197;-82
2023/03/07 12:47:06;;;;;;;12.52;8.75;;;9.40;20.60;;;;;;5133227;27;20689;-81
2023/03/07 12:49:39;;;;;;;12.70;8.75;;;9.40;20.00;;;;;;5151156;27;20183;-82
2023/03/07 12:52:14;;;;;;;11.93;8.20;;;9.20;19.70;;;;;;5128678;27;21003;-83
2023/03/07 12:54:52;;;;;;;11.93;8.50;;;9.30;20.00;;;;;;5145396;27;20191;-82
2023/03/07 12:57:25;;;;;;;12.27;8.23;;;9.20;20.70;;;;;;5128770;27;20609;-82
2023/03/07 12:59:53;;;;;;;13.57;8.57;;;9.40;19.50;;;;;;5154385;27;20706;-82